• Join FlightAware (Why Join?)
  • Login
  • US Flag 
06:51AM EDT


 

Airport Tracker/Info


-or-


 

Live Flight TrackerFlight Track Log ✈ UAL4843 ✈ 25-Apr-2013 ✈ KEWR - KBWI

Flight Track Log - Related Links

Times and Time Zones

All times are in EDT time to prevent confusion due to time zone crossing. See the UAL4843 flight status page for this flight to view local times or setup timezone preferences in your user account.

Time Position Orientation Groundspeed Altitude Reporting Facility
EDT Latitude Longitude Course Direction KTS MPH feet Rate Location/Type
02:07PM 40.2909 -74.8500 232° Southwest  Level Estimated
02:08PM 40.2542 -74.9115 232° Southwest  Level Estimated
02:09PM 40.2175 -74.9730 232° Southwest  Level Estimated
02:10PM 40.1807 -75.0344 232° Southwest  Level Estimated
02:11PM 40.1439 -75.0957 232° Southwest  Level Estimated
02:12PM 40.1071 -75.1570 232° Southwest  Level Estimated
02:13PM 40.0702 -75.2182 232° Southwest  Level Estimated
02:14PM 40.0333 -75.2793 232° Southwest  Level Estimated
02:15PM 39.9964 -75.3404 232° Southwest  Level Estimated
02:16PM 39.9594 -75.4014 232° Southwest  Level Estimated
02:17PM 39.9224 -75.4623 232° Southwest  Level Estimated
02:18PM 39.8854 -75.5232 232° Southwest  Level Estimated
02:19PM 39.8484 -75.5840 232° Southwest  Level Estimated
02:20PM 39.8113 -75.6448 232° Southwest  Level Estimated
02:21PM 39.7741 -75.7054 231° Southwest  Level Estimated
02:22PM 39.7370 -75.7660 231° Southwest  Level Estimated
02:23PM 39.6998 -75.8266 231° Southwest  Level Estimated
02:24PM 39.6626 -75.8870 231° Southwest  Level Estimated
02:25PM 39.6253 -75.9475 231° Southwest  Level Estimated
02:26PM 39.5881 -76.0078 231° Southwest  Level Estimated
02:27PM 39.5508 -76.0681 231° Southwest  Level Estimated
02:28PM 39.5134 -76.1283 231° Southwest  Level Estimated
02:29PM 39.4760 -76.1885 231° Southwest  Level Estimated
02:30PM 39.4386 -76.2486 231° Southwest  Level Estimated
02:31PM 39.4012 -76.3086 231° Southwest  Level Estimated
02:32PM 39.3638 -76.3685 231° Southwest  Level Estimated
02:33PM 39.3262 -76.4284 231° Southwest  Level Estimated
02:34PM 39.2887 -76.4883 231° Southwest  Level Estimated
02:35PM 39.2512 -76.5480 231° Southwest  Level Estimated
02:36PM 39.2136 -76.6077 231° Southwest  Level Estimated
02:37PM 39.1760 -76.6674 231° Southwest  Level Estimated
02:38PM 39.1754 -76.6683 231° Southwest  Level Estimated
02:39PM 39.1754 -76.6683 293° West  Level Estimated
02:40PM 39.1754 -76.6683 293° West  Level Estimated
02:41PM 39.1754 -76.6683 293° West  Level Estimated
02:42PM 39.1754 -76.6683 293° West  Level Estimated
02:43PM 39.1754 -76.6683 293° West  Level Estimated
02:44PM 39.1754 -76.6683 293° West  Level Estimated
02:45PM 39.1754 -76.6683 293° West  Level Estimated
02:46PM 39.1754 -76.6683 293° West  Level Estimated
02:47PM 39.1754 -76.6683 293° West  Level Estimated
02:48PM 39.1754 -76.6683 293° West  Level Estimated
02:49PM 39.1754 -76.6683 293° West  Level Estimated
02:50PM 39.1754 -76.6683 293° West  Level Estimated
02:51PM 39.1754 -76.6683 293° West  Level Estimated
02:52PM 39.1754 -76.6683 293° West  Level Estimated
02:53PM 39.1754 -76.6683 293° West  Level Estimated